Terminal Aerodrome Forecast
Issued by NWS

Home | Current Version | Previous Version | Graphics & Text | Print | Product List | Glossary On
Versions: 1 2 3 4 5 6 7 8 9 10 11 12 13 14 15
492
FTUS42 KMHX 072049 AAA
TAFPGV
TAF AMD
KPGV 072049Z 0721/0818 35015G25KT 6SM -RA SCT030 OVC060
     FM080100 36013G20KT P6SM BKN050
     FM080800 35010KT P6SM SCT090
     FM081200 32005KT P6SM SKC
      AMD LTD TO CLD VIS AND WIND=

USA.gov is the U.S. government's official web portal to all federal, state and local government web resources and services.